sensor_id;sensor_type;location;lat;lon;timestamp;P1;durP1;ratioP1;P2;durP2;ratioP2
68319;SDS011;55168;51.120;17.024;2023-04-25T00:00:00;4.1;;;3.7;;
68319;SDS011;55168;51.120;17.024;2023-04-25T00:01:00;5.3;;;3.8;;
68319;SDS011;55168;51.120;17.024;2023-04-25T00:02:00;5.3;;;3.8;;
68319;SDS011;55168;51.120;17.024;2023-04-25T00:03:00;5.3;;;3.8;;
68319;SDS011;55168;51.120;17.024;2023-04-25T00:04:00;5.3;;;3.8;;
68319;SDS011;55168;51.120;17.024;2023-04-25T00:05:00;3.8;;;3.5;;
68319;SDS011;55168;51.120;17.024;2023-04-25T00:06:00;3.8;;;3.5;;
68319;SDS011;55168;51.120;17.024;2023-04-25T00:07:00;3.8;;;3.5;;
68319;SDS011;55168;51.120;17.024;2023-04-25T00:08:00;3.8;;;3.5;;
68319;SDS011;55168;51.120;17.024;2023-04-25T00:09:00;3.8;;;3.5;;
68319;SDS011;55168;51.120;17.024;2023-04-25T00:10:00;4.4;;;3.6;;
68319;SDS011;55168;51.120;17.024;2023-04-25T00:11:00;4.4;;;3.6;;
68319;SDS011;55168;51.120;17.024;2023-04-25T00:12:00;4.4;;;3.6;;
68319;SDS011;55168;51.120;17.024;2023-04-25T00:13:00;4.4;;;3.6;;
68319;SDS011;55168;51.120;17.024;2023-04-25T00:14:00;4.4;;;3.6;;
68319;SDS011;55168;51.120;17.024;2023-04-25T00:15:00;4.7;;;3.3;;
68319;SDS011;55168;51.120;17.024;2023-04-25T00:16:00;4.7;;;3.3;;
68319;SDS011;55168;51.120;17.024;2023-04-25T00:17:00;4.7;;;3.3;;
68319;SDS011;55168;51.120;17.024;2023-04-25T00:18:00;4.7;;;3.3;;
68319;SDS011;55168;51.120;17.024;2023-04-25T00:19:00;4.7;;;3.3;;
68319;SDS011;55168;51.120;17.024;2023-04-25T00:20:00;3.3;;;3.0;;
68319;SDS011;55168;51.120;17.024;2023-04-25T00:21:00;3.3;;;3.0;;
68319;SDS011;55168;51.120;17.024;2023-04-25T00:22:00;3.3;;;3.0;;
68319;SDS011;55168;51.120;17.024;2023-04-25T00:23:00;3.3;;;3.0;;
68319;SDS011;55168;51.120;17.024;2023-04-25T00:24:00;3.3;;;3.0;;
68319;SDS011;55168;51.120;17.024;2023-04-25T00:25:00;3.6;;;3.3;;
68319;SDS011;55168;51.120;17.024;2023-04-25T00:26:00;3.6;;;3.3;;
68319;SDS011;55168;51.120;17.024;2023-04-25T00:27:00;3.6;;;3.3;;
68319;SDS011;55168;51.120;17.024;2023-04-25T00:28:00;3.6;;;3.3;;
68319;SDS011;55168;51.120;17.024;2023-04-25T00:29:00;3.6;;;3.3;;
68319;SDS011;55168;51.120;17.024;2023-04-25T00:30:00;3.2;;;3.0;;
68319;SDS011;55168;51.120;17.024;2023-04-25T00:31:00;3.2;;;3.0;;
68319;SDS011;55168;51.120;17.024;2023-04-25T00:32:00;3.2;;;3.0;;
68319;SDS011;55168;51.120;17.024;2023-04-25T00:33:00;3.2;;;3.0;;
68319;SDS011;55168;51.120;17.024;2023-04-25T00:34:00;3.2;;;3.0;;
68319;SDS011;55168;51.120;17.024;2023-04-25T00:35:00;3.4;;;3.1;;
68319;SDS011;55168;51.120;17.024;2023-04-25T00:36:00;3.4;;;3.1;;
68319;SDS011;55168;51.120;17.024;2023-04-25T00:37:00;3.4;;;3.1;;
68319;SDS011;55168;51.120;17.024;2023-04-25T00:38:00;3.4;;;3.1;;
68319;SDS011;55168;51.120;17.024;2023-04-25T00:39:00;3.4;;;3.1;;
68319;SDS011;55168;51.120;17.024;2023-04-25T00:40:00;3.7;;;3.4;;
68319;SDS011;55168;51.120;17.024;2023-04-25T00:41:00;3.7;;;3.4;;
68319;SDS011;55168;51.120;17.024;2023-04-25T00:42:00;3.7;;;3.4;;
68319;SDS011;55168;51.120;17.024;2023-04-25T00:43:00;3.7;;;3.4;;
68319;SDS011;55168;51.120;17.024;2023-04-25T00:44:00;3.7;;;3.4;;
68319;SDS011;55168;51.120;17.024;2023-04-25T00:45:00;5.2;;;3.4;;
68319;SDS011;55168;51.120;17.024;2023-04-25T00:46:00;5.2;;;3.4;;
68319;SDS011;55168;51.120;17.024;2023-04-25T00:47:01;5.2;;;3.4;;
68319;SDS011;55168;51.120;17.024;2023-04-25T00:48:00;5.2;;;3.4;;
68319;SDS011;55168;51.120;17.024;2023-04-25T00:49:00;5.2;;;3.4;;
68319;SDS011;55168;51.120;17.024;2023-04-25T00:50:00;3.8;;;3.4;;
68319;SDS011;55168;51.120;17.024;2023-04-25T00:51:00;3.8;;;3.4;;
68319;SDS011;55168;51.120;17.024;2023-04-25T00:52:00;3.8;;;3.4;;
68319;SDS011;55168;51.120;17.024;2023-04-25T00:53:00;3.8;;;3.4;;
68319;SDS011;55168;51.120;17.024;2023-04-25T00:54:00;3.8;;;3.4;;
68319;SDS011;55168;51.120;17.024;2023-04-25T00:55:00;3.4;;;3.1;;
68319;SDS011;55168;51.120;17.024;2023-04-25T00:56:00;3.4;;;3.1;;
68319;SDS011;55168;51.120;17.024;2023-04-25T00:57:00;3.4;;;3.1;;
68319;SDS011;55168;51.120;17.024;2023-04-25T00:58:00;3.4;;;3.1;;
68319;SDS011;55168;51.120;17.024;2023-04-25T00:59:00;3.4;;;3.1;;
68319;SDS011;55168;51.120;17.024;2023-04-25T01:00:00;3.6;;;3.3;;
68319;SDS011;55168;51.120;17.024;2023-04-25T01:01:00;3.6;;;3.3;;
68319;SDS011;55168;51.120;17.024;2023-04-25T01:02:00;3.6;;;3.3;;
68319;SDS011;55168;51.120;17.024;2023-04-25T01:03:00;3.6;;;3.3;;
68319;SDS011;55168;51.120;17.024;2023-04-25T01:04:00;3.6;;;3.3;;
68319;SDS011;55168;51.120;17.024;2023-04-25T01:05:00;4.8;;;3.3;;
68319;SDS011;55168;51.120;17.024;2023-04-25T01:06:00;4.8;;;3.3;;
68319;SDS011;55168;51.120;17.024;2023-04-25T01:07:00;4.8;;;3.3;;
68319;SDS011;55168;51.120;17.024;2023-04-25T01:08:00;4.8;;;3.3;;
68319;SDS011;55168;51.120;17.024;2023-04-25T01:09:01;4.8;;;3.3;;
68319;SDS011;55168;51.120;17.024;2023-04-25T01:10:00;4.3;;;3.6;;
68319;SDS011;55168;51.120;17.024;2023-04-25T01:11:00;4.3;;;3.6;;
68319;SDS011;55168;51.120;17.024;2023-04-25T01:12:00;4.3;;;3.6;;
68319;SDS011;55168;51.120;17.024;2023-04-25T01:13:00;4.3;;;3.6;;
68319;SDS011;55168;51.120;17.024;2023-04-25T01:14:00;4.3;;;3.6;;
68319;SDS011;55168;51.120;17.024;2023-04-25T01:15:00;4.4;;;3.8;;
68319;SDS011;55168;51.120;17.024;2023-04-25T01:16:00;4.4;;;3.8;;
68319;SDS011;55168;51.120;17.024;2023-04-25T01:17:00;4.4;;;3.8;;
68319;SDS011;55168;51.120;17.024;2023-04-25T01:18:00;4.4;;;3.8;;
68319;SDS011;55168;51.120;17.024;2023-04-25T01:19:00;4.4;;;3.8;;
68319;SDS011;55168;51.120;17.024;2023-04-25T01:20:03;4.1;;;3.7;;
68319;SDS011;55168;51.120;17.024;2023-04-25T01:21:10;4.1;;;3.7;;
68319;SDS011;55168;51.120;17.024;2023-04-25T01:22:00;4.1;;;3.7;;
68319;SDS011;55168;51.120;17.024;2023-04-25T01:23:00;4.1;;;3.7;;
68319;SDS011;55168;51.120;17.024;2023-04-25T01:24:00;4.1;;;3.7;;
68319;SDS011;55168;51.120;17.024;2023-04-25T01:25:00;4.0;;;3.7;;
68319;SDS011;55168;51.120;17.024;2023-04-25T01:26:00;4.0;;;3.7;;
68319;SDS011;55168;51.120;17.024;2023-04-25T01:27:00;4.0;;;3.7;;
68319;SDS011;55168;51.120;17.024;2023-04-25T01:28:00;4.0;;;3.7;;
68319;SDS011;55168;51.120;17.024;2023-04-25T01:29:00;4.0;;;3.7;;
68319;SDS011;55168;51.120;17.024;2023-04-25T01:30:00;4.1;;;3.8;;
68319;SDS011;55168;51.120;17.024;2023-04-25T01:31:01;4.1;;;3.8;;
68319;SDS011;55168;51.120;17.024;2023-04-25T01:32:01;4.1;;;3.8;;
68319;SDS011;55168;51.120;17.024;2023-04-25T01:33:00;4.1;;;3.8;;
68319;SDS011;55168;51.120;17.024;2023-04-25T01:34:00;4.1;;;3.8;;
68319;SDS011;55168;51.120;17.024;2023-04-25T01:35:00;4.4;;;4.0;;
68319;SDS011;55168;51.120;17.024;2023-04-25T01:36:00;4.4;;;4.0;;
68319;SDS011;55168;51.120;17.024;2023-04-25T01:37:00;4.4;;;4.0;;
68319;SDS011;55168;51.120;17.024;2023-04-25T01:38:00;4.4;;;4.0;;
68319;SDS011;55168;51.120;17.024;2023-04-25T01:39:00;4.4;;;4.0;;
68319;SDS011;55168;51.120;17.024;2023-04-25T01:40:00;4.5;;;4.0;;
68319;SDS011;55168;51.120;17.024;2023-04-25T01:41:00;4.5;;;4.0;;
68319;SDS011;55168;51.120;17.024;2023-04-25T01:42:00;4.5;;;4.0;;
68319;SDS011;55168;51.120;17.024;2023-04-25T01:43:00;4.5;;;4.0;;
68319;SDS011;55168;51.120;17.024;2023-04-25T01:44:01;4.5;;;4.0;;
68319;SDS011;55168;51.120;17.024;2023-04-25T01:45:00;4.2;;;3.9;;
68319;SDS011;55168;51.120;17.024;2023-04-25T01:46:00;4.2;;;3.9;;
68319;SDS011;55168;51.120;17.024;2023-04-25T01:47:00;4.2;;;3.9;;
68319;SDS011;55168;51.120;17.024;2023-04-25T01:48:00;4.2;;;3.9;;
68319;SDS011;55168;51.120;17.024;2023-04-25T01:49:00;4.2;;;3.9;;
68319;SDS011;55168;51.120;17.024;2023-04-25T01:50:00;5.2;;;4.4;;
68319;SDS011;55168;51.120;17.024;2023-04-25T01:51:00;5.2;;;4.4;;
68319;SDS011;55168;51.120;17.024;2023-04-25T01:52:00;5.2;;;4.4;;
68319;SDS011;55168;51.120;17.024;2023-04-25T01:53:00;5.2;;;4.4;;
68319;SDS011;55168;51.120;17.024;2023-04-25T01:54:00;5.2;;;4.4;;
68319;SDS011;55168;51.120;17.024;2023-04-25T01:55:01;4.6;;;4.2;;
68319;SDS011;55168;51.120;17.024;2023-04-25T01:56:00;4.6;;;4.2;;
68319;SDS011;55168;51.120;17.024;2023-04-25T01:57:00;4.6;;;4.2;;
68319;SDS011;55168;51.120;17.024;2023-04-25T01:58:02;4.6;;;4.2;;
68319;SDS011;55168;51.120;17.024;2023-04-25T01:59:00;4.6;;;4.2;;
68319;SDS011;55168;51.120;17.024;2023-04-25T02:00:03;4.9;;;4.4;;
68319;SDS011;55168;51.120;17.024;2023-04-25T02:01:00;4.9;;;4.4;;
68319;SDS011;55168;51.120;17.024;2023-04-25T02:02:00;4.9;;;4.4;;
68319;SDS011;55168;51.120;17.024;2023-04-25T02:03:00;4.9;;;4.4;;
68319;SDS011;55168;51.120;17.024;2023-04-25T02:04:00;4.9;;;4.4;;
68319;SDS011;55168;51.120;17.024;2023-04-25T02:05:00;5.6;;;4.8;;
68319;SDS011;55168;51.120;17.024;2023-04-25T02:06:00;5.6;;;4.8;;
68319;SDS011;55168;51.120;17.024;2023-04-25T02:07:00;5.6;;;4.8;;
68319;SDS011;55168;51.120;17.024;2023-04-25T02:08:00;5.6;;;4.8;;
68319;SDS011;55168;51.120;17.024;2023-04-25T02:09:00;5.6;;;4.8;;
68319;SDS011;55168;51.120;17.024;2023-04-25T02:10:00;5.1;;;4.6;;
68319;SDS011;55168;51.120;17.024;2023-04-25T02:11:00;5.1;;;4.6;;
68319;SDS011;55168;51.120;17.024;2023-04-25T02:12:00;5.1;;;4.6;;
68319;SDS011;55168;51.120;17.024;2023-04-25T02:13:00;5.1;;;4.6;;
68319;SDS011;55168;51.120;17.024;2023-04-25T02:14:00;5.1;;;4.6;;
68319;SDS011;55168;51.120;17.024;2023-04-25T02:15:00;5.9;;;4.7;;
68319;SDS011;55168;51.120;17.024;2023-04-25T02:16:00;5.9;;;4.7;;
68319;SDS011;55168;51.120;17.024;2023-04-25T02:17:00;5.9;;;4.7;;
68319;SDS011;55168;51.120;17.024;2023-04-25T02:18:00;5.9;;;4.7;;
68319;SDS011;55168;51.120;17.024;2023-04-25T02:19:00;5.9;;;4.7;;
68319;SDS011;55168;51.120;17.024;2023-04-25T02:20:00;5.6;;;5.1;;
68319;SDS011;55168;51.120;17.024;2023-04-25T02:21:00;5.6;;;5.1;;
68319;SDS011;55168;51.120;17.024;2023-04-25T02:22:00;5.6;;;5.1;;
68319;SDS011;55168;51.120;17.024;2023-04-25T02:23:00;5.6;;;5.1;;
68319;SDS011;55168;51.120;17.024;2023-04-25T02:24:00;5.6;;;5.1;;
68319;SDS011;55168;51.120;17.024;2023-04-25T02:25:00;6.2;;;4.9;;
68319;SDS011;55168;51.120;17.024;2023-04-25T02:26:00;6.2;;;4.9;;
68319;SDS011;55168;51.120;17.024;2023-04-25T02:27:00;6.2;;;4.9;;
68319;SDS011;55168;51.120;17.024;2023-04-25T02:28:00;6.2;;;4.9;;
68319;SDS011;55168;51.120;17.024;2023-04-25T02:29:00;6.2;;;4.9;;
68319;SDS011;55168;51.120;17.024;2023-04-25T02:30:00;5.8;;;5.1;;
68319;SDS011;55168;51.120;17.024;2023-04-25T02:31:00;5.8;;;5.1;;
68319;SDS011;55168;51.120;17.024;2023-04-25T02:32:00;5.8;;;5.1;;
68319;SDS011;55168;51.120;17.024;2023-04-25T02:33:00;5.8;;;5.1;;
68319;SDS011;55168;51.120;17.024;2023-04-25T02:34:00;5.8;;;5.1;;
68319;SDS011;55168;51.120;17.024;2023-04-25T02:35:00;6.2;;;5.2;;
68319;SDS011;55168;51.120;17.024;2023-04-25T02:36:00;6.2;;;5.2;;
68319;SDS011;55168;51.120;17.024;2023-04-25T02:37:00;6.2;;;5.2;;
68319;SDS011;55168;51.120;17.024;2023-04-25T02:38:00;6.2;;;5.2;;
68319;SDS011;55168;51.120;17.024;2023-04-25T02:39:00;6.2;;;5.2;;
68319;SDS011;55168;51.120;17.024;2023-04-25T02:40:01;6.5;;;5.5;;
68319;SDS011;55168;51.120;17.024;2023-04-25T02:41:00;6.5;;;5.5;;
68319;SDS011;55168;51.120;17.024;2023-04-25T02:42:00;6.5;;;5.5;;
68319;SDS011;55168;51.120;17.024;2023-04-25T02:43:00;6.5;;;5.5;;
68319;SDS011;55168;51.120;17.024;2023-04-25T02:44:00;6.5;;;5.5;;
68319;SDS011;55168;51.120;17.024;2023-04-25T02:45:00;6.0;;;5.4;;
68319;SDS011;55168;51.120;17.024;2023-04-25T02:46:00;6.0;;;5.4;;
68319;SDS011;55168;51.120;17.024;2023-04-25T02:47:00;6.0;;;5.4;;
68319;SDS011;55168;51.120;17.024;2023-04-25T02:48:00;6.0;;;5.4;;
68319;SDS011;55168;51.120;17.024;2023-04-25T02:49:00;6.0;;;5.4;;
68319;SDS011;55168;51.120;17.024;2023-04-25T02:50:00;6.5;;;5.7;;
68319;SDS011;55168;51.120;17.024;2023-04-25T02:51:00;6.5;;;5.7;;
68319;SDS011;55168;51.120;17.024;2023-04-25T02:52:00;6.5;;;5.7;;
68319;SDS011;55168;51.120;17.024;2023-04-25T02:53:00;6.5;;;5.7;;
68319;SDS011;55168;51.120;17.024;2023-04-25T02:54:00;6.5;;;5.7;;
68319;SDS011;55168;51.120;17.024;2023-04-25T02:55:00;5.7;;;5.1;;
68319;SDS011;55168;51.120;17.024;2023-04-25T02:56:00;5.7;;;5.1;;
68319;SDS011;55168;51.120;17.024;2023-04-25T02:57:00;5.7;;;5.1;;
68319;SDS011;55168;51.120;17.024;2023-04-25T02:58:00;5.7;;;5.1;;
68319;SDS011;55168;51.120;17.024;2023-04-25T02:59:00;5.7;;;5.1;;
68319;SDS011;55168;51.120;17.024;2023-04-25T03:00:00;6.9;;;5.9;;
68319;SDS011;55168;51.120;17.024;2023-04-25T03:01:00;6.9;;;5.9;;
68319;SDS011;55168;51.120;17.024;2023-04-25T03:02:00;6.9;;;5.9;;
68319;SDS011;55168;51.120;17.024;2023-04-25T03:03:00;6.9;;;5.9;;
68319;SDS011;55168;51.120;17.024;2023-04-25T03:04:00;6.9;;;5.9;;
68319;SDS011;55168;51.120;17.024;2023-04-25T03:05:00;17.4;;;15.7;;
68319;SDS011;55168;51.120;17.024;2023-04-25T03:06:00;17.4;;;15.7;;
68319;SDS011;55168;51.120;17.024;2023-04-25T03:07:00;17.4;;;15.7;;
68319;SDS011;55168;51.120;17.024;2023-04-25T03:08:00;17.4;;;15.7;;
68319;SDS011;55168;51.120;17.024;2023-04-25T03:09:00;17.4;;;15.7;;
68319;SDS011;55168;51.120;17.024;2023-04-25T03:10:00;9.5;;;8.5;;
68319;SDS011;55168;51.120;17.024;2023-04-25T03:11:00;9.5;;;8.5;;
68319;SDS011;55168;51.120;17.024;2023-04-25T03:12:00;9.5;;;8.5;;
68319;SDS011;55168;51.120;17.024;2023-04-25T03:13:00;9.5;;;8.5;;
68319;SDS011;55168;51.120;17.024;2023-04-25T03:14:00;9.5;;;8.5;;
68319;SDS011;55168;51.120;17.024;2023-04-25T03:15:00;6.9;;;6.2;;
68319;SDS011;55168;51.120;17.024;2023-04-25T03:16:00;6.9;;;6.2;;
68319;SDS011;55168;51.120;17.024;2023-04-25T03:17:00;6.9;;;6.2;;
68319;SDS011;55168;51.120;17.024;2023-04-25T03:18:00;6.9;;;6.2;;
68319;SDS011;55168;51.120;17.024;2023-04-25T03:19:00;6.9;;;6.2;;
68319;SDS011;55168;51.120;17.024;2023-04-25T03:20:00;6.8;;;5.9;;
68319;SDS011;55168;51.120;17.024;2023-04-25T03:21:00;6.8;;;5.9;;
68319;SDS011;55168;51.120;17.024;2023-04-25T03:22:00;6.8;;;5.9;;
68319;SDS011;55168;51.120;17.024;2023-04-25T03:23:00;6.8;;;5.9;;
68319;SDS011;55168;51.120;17.024;2023-04-25T03:24:01;6.8;;;5.9;;
68319;SDS011;55168;51.120;17.024;2023-04-25T03:25:00;6.7;;;5.8;;
68319;SDS011;55168;51.120;17.024;2023-04-25T03:26:00;6.7;;;5.8;;
68319;SDS011;55168;51.120;17.024;2023-04-25T03:27:00;6.7;;;5.8;;
68319;SDS011;55168;51.120;17.024;2023-04-25T03:28:00;6.7;;;5.8;;
68319;SDS011;55168;51.120;17.024;2023-04-25T03:29:00;6.7;;;5.8;;
68319;SDS011;55168;51.120;17.024;2023-04-25T03:30:00;7.6;;;6.2;;
68319;SDS011;55168;51.120;17.024;2023-04-25T03:31:00;7.6;;;6.2;;
68319;SDS011;55168;51.120;17.024;2023-04-25T03:32:00;7.6;;;6.2;;
68319;SDS011;55168;51.120;17.024;2023-04-25T03:33:00;7.6;;;6.2;;
68319;SDS011;55168;51.120;17.024;2023-04-25T03:34:00;7.6;;;6.2;;
68319;SDS011;55168;51.120;17.024;2023-04-25T03:35:00;7.1;;;6.4;;
68319;SDS011;55168;51.120;17.024;2023-04-25T03:36:00;7.1;;;6.4;;
68319;SDS011;55168;51.120;17.024;2023-04-25T03:37:00;7.1;;;6.4;;
68319;SDS011;55168;51.120;17.024;2023-04-25T03:38:00;7.1;;;6.4;;
68319;SDS011;55168;51.120;17.024;2023-04-25T03:39:00;7.1;;;6.4;;
68319;SDS011;55168;51.120;17.024;2023-04-25T03:40:00;8.4;;;6.2;;
68319;SDS011;55168;51.120;17.024;2023-04-25T03:41:01;8.4;;;6.2;;
68319;SDS011;55168;51.120;17.024;2023-04-25T03:42:00;8.4;;;6.2;;
68319;SDS011;55168;51.120;17.024;2023-04-25T03:43:00;8.4;;;6.2;;
68319;SDS011;55168;51.120;17.024;2023-04-25T03:44:00;8.4;;;6.2;;
68319;SDS011;55168;51.120;17.024;2023-04-25T03:45:00;9.0;;;6.7;;
68319;SDS011;55168;51.120;17.024;2023-04-25T03:46:00;9.0;;;6.7;;
68319;SDS011;55168;51.120;17.024;2023-04-25T03:47:00;9.0;;;6.7;;
68319;SDS011;55168;51.120;17.024;2023-04-25T03:48:00;9.0;;;6.7;;
68319;SDS011;55168;51.120;17.024;2023-04-25T03:49:00;9.0;;;6.7;;
68319;SDS011;55168;51.120;17.024;2023-04-25T03:50:00;6.9;;;5.9;;
68319;SDS011;55168;51.120;17.024;2023-04-25T03:51:00;6.9;;;5.9;;
68319;SDS011;55168;51.120;17.024;2023-04-25T03:52:00;6.9;;;5.9;;
68319;SDS011;55168;51.120;17.024;2023-04-25T03:53:00;6.9;;;5.9;;
68319;SDS011;55168;51.120;17.024;2023-04-25T03:54:00;6.9;;;5.9;;
68319;SDS011;55168;51.120;17.024;2023-04-25T03:55:00;7.6;;;6.2;;
68319;SDS011;55168;51.120;17.024;2023-04-25T03:56:00;7.6;;;6.2;;
68319;SDS011;55168;51.120;17.024;2023-04-25T03:57:00;7.6;;;6.2;;
68319;SDS011;55168;51.120;17.024;2023-04-25T03:58:00;7.6;;;6.2;;
68319;SDS011;55168;51.120;17.024;2023-04-25T03:59:00;7.6;;;6.2;;
68319;SDS011;55168;51.120;17.024;2023-04-25T04:00:00;9.9;;;6.7;;
68319;SDS011;55168;51.120;17.024;2023-04-25T04:01:00;9.9;;;6.7;;
68319;SDS011;55168;51.120;17.024;2023-04-25T04:02:00;9.9;;;6.7;;
68319;SDS011;55168;51.120;17.024;2023-04-25T04:03:00;9.9;;;6.7;;
68319;SDS011;55168;51.120;17.024;2023-04-25T04:04:00;9.9;;;6.7;;
68319;SDS011;55168;51.120;17.024;2023-04-25T04:05:00;7.2;;;6.5;;
68319;SDS011;55168;51.120;17.024;2023-04-25T04:06:00;7.2;;;6.5;;
68319;SDS011;55168;51.120;17.024;2023-04-25T04:07:00;7.2;;;6.5;;
68319;SDS011;55168;51.120;17.024;2023-04-25T04:08:00;7.2;;;6.5;;
68319;SDS011;55168;51.120;17.024;2023-04-25T04:09:00;7.2;;;6.5;;
68319;SDS011;55168;51.120;17.024;2023-04-25T04:10:00;8.0;;;6.4;;
68319;SDS011;55168;51.120;17.024;2023-04-25T04:11:00;8.0;;;6.4;;
68319;SDS011;55168;51.120;17.024;2023-04-25T04:12:00;8.0;;;6.4;;
68319;SDS011;55168;51.120;17.024;2023-04-25T04:13:00;8.0;;;6.4;;
68319;SDS011;55168;51.120;17.024;2023-04-25T04:14:00;8.0;;;6.4;;
68319;SDS011;55168;51.120;17.024;2023-04-25T04:15:01;9.0;;;6.9;;
68319;SDS011;55168;51.120;17.024;2023-04-25T04:16:00;9.0;;;6.9;;
68319;SDS011;55168;51.120;17.024;2023-04-25T04:17:00;9.0;;;6.9;;
68319;SDS011;55168;51.120;17.024;2023-04-25T04:18:00;9.0;;;6.9;;
68319;SDS011;55168;51.120;17.024;2023-04-25T04:19:00;9.0;;;6.9;;
68319;SDS011;55168;51.120;17.024;2023-04-25T04:20:00;7.8;;;6.9;;
68319;SDS011;55168;51.120;17.024;2023-04-25T04:21:00;7.8;;;6.9;;
68319;SDS011;55168;51.120;17.024;2023-04-25T04:22:00;7.8;;;6.9;;
68319;SDS011;55168;51.120;17.024;2023-04-25T04:23:00;7.8;;;6.9;;
68319;SDS011;55168;51.120;17.024;2023-04-25T04:24:00;7.8;;;6.9;;
68319;SDS011;55168;51.120;17.024;2023-04-25T04:25:00;8.4;;;7.1;;
68319;SDS011;55168;51.120;17.024;2023-04-25T04:26:00;8.4;;;7.1;;
68319;SDS011;55168;51.120;17.024;2023-04-25T04:27:00;8.4;;;7.1;;
68319;SDS011;55168;51.120;17.024;2023-04-25T04:28:00;8.4;;;7.1;;
68319;SDS011;55168;51.120;17.024;2023-04-25T04:29:00;8.4;;;7.1;;
68319;SDS011;55168;51.120;17.024;2023-04-25T04:30:00;8.7;;;7.0;;
68319;SDS011;55168;51.120;17.024;2023-04-25T04:31:00;8.7;;;7.0;;
68319;SDS011;55168;51.120;17.024;2023-04-25T04:32:00;8.7;;;7.0;;
68319;SDS011;55168;51.120;17.024;2023-04-25T04:33:00;8.7;;;7.0;;
68319;SDS011;55168;51.120;17.024;2023-04-25T04:34:00;8.7;;;7.0;;
68319;SDS011;55168;51.120;17.024;2023-04-25T04:35:00;9.5;;;7.6;;
68319;SDS011;55168;51.120;17.024;2023-04-25T04:36:00;9.5;;;7.6;;
68319;SDS011;55168;51.120;17.024;2023-04-25T04:37:00;9.5;;;7.6;;
68319;SDS011;55168;51.120;17.024;2023-04-25T04:38:00;9.5;;;7.6;;
68319;SDS011;55168;51.120;17.024;2023-04-25T04:39:00;9.5;;;7.6;;
68319;SDS011;55168;51.120;17.024;2023-04-25T04:40:00;9.4;;;7.5;;
68319;SDS011;55168;51.120;17.024;2023-04-25T04:41:00;9.4;;;7.5;;
68319;SDS011;55168;51.120;17.024;2023-04-25T04:42:00;9.4;;;7.5;;
68319;SDS011;55168;51.120;17.024;2023-04-25T04:43:00;9.4;;;7.5;;
68319;SDS011;55168;51.120;17.024;2023-04-25T04:44:00;9.4;;;7.5;;
68319;SDS011;55168;51.120;17.024;2023-04-25T04:45:00;10.7;;;7.5;;
68319;SDS011;55168;51.120;17.024;2023-04-25T04:46:00;10.7;;;7.5;;
68319;SDS011;55168;51.120;17.024;2023-04-25T04:47:00;10.7;;;7.5;;
68319;SDS011;55168;51.120;17.024;2023-04-25T04:48:00;10.7;;;7.5;;
68319;SDS011;55168;51.120;17.024;2023-04-25T04:49:00;10.7;;;7.5;;
68319;SDS011;55168;51.120;17.024;2023-04-25T04:50:00;9.1;;;7.7;;
68319;SDS011;55168;51.120;17.024;2023-04-25T04:51:00;9.1;;;7.7;;
68319;SDS011;55168;51.120;17.024;2023-04-25T04:52:00;9.1;;;7.7;;
68319;SDS011;55168;51.120;17.024;2023-04-25T04:53:00;9.1;;;7.7;;
68319;SDS011;55168;51.120;17.024;2023-04-25T04:54:00;9.1;;;7.7;;
68319;SDS011;55168;51.120;17.024;2023-04-25T04:55:00;8.9;;;7.1;;
68319;SDS011;55168;51.120;17.024;2023-04-25T04:56:00;8.9;;;7.1;;
68319;SDS011;55168;51.120;17.024;2023-04-25T04:57:00;8.9;;;7.1;;
68319;SDS011;55168;51.120;17.024;2023-04-25T04:58:00;8.9;;;7.1;;
68319;SDS011;55168;51.120;17.024;2023-04-25T04:59:00;8.9;;;7.1;;
68319;SDS011;55168;51.120;17.024;2023-04-25T05:00:00;10.6;;;7.2;;
68319;SDS011;55168;51.120;17.024;2023-04-25T05:01:00;10.6;;;7.2;;
68319;SDS011;55168;51.120;17.024;2023-04-25T05:02:00;10.6;;;7.2;;
68319;SDS011;55168;51.120;17.024;2023-04-25T05:03:00;10.6;;;7.2;;
68319;SDS011;55168;51.120;17.024;2023-04-25T05:04:00;10.6;;;7.2;;
68319;SDS011;55168;51.120;17.024;2023-04-25T05:05:00;8.6;;;6.9;;
68319;SDS011;55168;51.120;17.024;2023-04-25T05:06:00;8.6;;;6.9;;
68319;SDS011;55168;51.120;17.024;2023-04-25T05:07:00;8.6;;;6.9;;
68319;SDS011;55168;51.120;17.024;2023-04-25T05:08:00;8.6;;;6.9;;
68319;SDS011;55168;51.120;17.024;2023-04-25T05:09:00;8.6;;;6.9;;
68319;SDS011;55168;51.120;17.024;2023-04-25T05:10:00;10.3;;;6.6;;
68319;SDS011;55168;51.120;17.024;2023-04-25T05:11:00;10.3;;;6.6;;
68319;SDS011;55168;51.120;17.024;2023-04-25T05:12:00;10.3;;;6.6;;
68319;SDS011;55168;51.120;17.024;2023-04-25T05:13:00;10.3;;;6.6;;
68319;SDS011;55168;51.120;17.024;2023-04-25T05:14:00;10.3;;;6.6;;
68319;SDS011;55168;51.120;17.024;2023-04-25T05:15:00;7.8;;;6.3;;
68319;SDS011;55168;51.120;17.024;2023-04-25T05:16:00;7.8;;;6.3;;
68319;SDS011;55168;51.120;17.024;2023-04-25T05:17:00;7.8;;;6.3;;
68319;SDS011;55168;51.120;17.024;2023-04-25T05:18:00;7.8;;;6.3;;
68319;SDS011;55168;51.120;17.024;2023-04-25T05:19:00;7.8;;;6.3;;
68319;SDS011;55168;51.120;17.024;2023-04-25T05:20:00;10.7;;;6.4;;
68319;SDS011;55168;51.120;17.024;2023-04-25T05:21:00;10.7;;;6.4;;
68319;SDS011;55168;51.120;17.024;2023-04-25T05:22:00;10.7;;;6.4;;
68319;SDS011;55168;51.120;17.024;2023-04-25T05:23:00;10.7;;;6.4;;
68319;SDS011;55168;51.120;17.024;2023-04-25T05:24:00;10.7;;;6.4;;
68319;SDS011;55168;51.120;17.024;2023-04-25T05:25:00;9.1;;;6.2;;
68319;SDS011;55168;51.120;17.024;2023-04-25T05:26:00;9.1;;;6.2;;
68319;SDS011;55168;51.120;17.024;2023-04-25T05:27:00;9.1;;;6.2;;
68319;SDS011;55168;51.120;17.024;2023-04-25T05:28:00;9.1;;;6.2;;
68319;SDS011;55168;51.120;17.024;2023-04-25T05:29:00;9.1;;;6.2;;
68319;SDS011;55168;51.120;17.024;2023-04-25T05:30:00;7.5;;;6.2;;
68319;SDS011;55168;51.120;17.024;2023-04-25T05:31:00;7.5;;;6.2;;
68319;SDS011;55168;51.120;17.024;2023-04-25T05:32:00;7.5;;;6.2;;
68319;SDS011;55168;51.120;17.024;2023-04-25T05:33:00;7.5;;;6.2;;
68319;SDS011;55168;51.120;17.024;2023-04-25T05:34:00;7.5;;;6.2;;
68319;SDS011;55168;51.120;17.024;2023-04-25T05:35:00;7.1;;;6.0;;
68319;SDS011;55168;51.120;17.024;2023-04-25T05:36:00;7.1;;;6.0;;
68319;SDS011;55168;51.120;17.024;2023-04-25T05:37:00;7.1;;;6.0;;
68319;SDS011;55168;51.120;17.024;2023-04-25T05:38:00;7.1;;;6.0;;
68319;SDS011;55168;51.120;17.024;2023-04-25T05:39:00;7.1;;;6.0;;
68319;SDS011;55168;51.120;17.024;2023-04-25T05:40:00;7.5;;;6.7;;
68319;SDS011;55168;51.120;17.024;2023-04-25T05:41:00;7.5;;;6.7;;
68319;SDS011;55168;51.120;17.024;2023-04-25T05:42:00;7.5;;;6.7;;
68319;SDS011;55168;51.120;17.024;2023-04-25T05:43:00;7.5;;;6.7;;
68319;SDS011;55168;51.120;17.024;2023-04-25T05:44:00;7.5;;;6.7;;
68319;SDS011;55168;51.120;17.024;2023-04-25T05:45:00;9.3;;;6.9;;
68319;SDS011;55168;51.120;17.024;2023-04-25T05:46:00;9.3;;;6.9;;
68319;SDS011;55168;51.120;17.024;2023-04-25T05:47:00;9.3;;;6.9;;
68319;SDS011;55168;51.120;17.024;2023-04-25T05:48:00;9.3;;;6.9;;
68319;SDS011;55168;51.120;17.024;2023-04-25T05:49:00;9.3;;;6.9;;
68319;SDS011;55168;51.120;17.024;2023-04-25T05:50:00;12.0;;;6.7;;
68319;SDS011;55168;51.120;17.024;2023-04-25T05:51:00;12.0;;;6.7;;
68319;SDS011;55168;51.120;17.024;2023-04-25T05:52:00;12.0;;;6.7;;
68319;SDS011;55168;51.120;17.024;2023-04-25T05:53:00;12.0;;;6.7;;
68319;SDS011;55168;51.120;17.024;2023-04-25T05:54:00;12.0;;;6.7;;
68319;SDS011;55168;51.120;17.024;2023-04-25T05:55:00;11.1;;;7.1;;
68319;SDS011;55168;51.120;17.024;2023-04-25T05:56:00;11.1;;;7.1;;
68319;SDS011;55168;51.120;17.024;2023-04-25T05:57:00;11.1;;;7.1;;
68319;SDS011;55168;51.120;17.024;2023-04-25T05:58:00;11.1;;;7.1;;
68319;SDS011;55168;51.120;17.024;2023-04-25T05:59:00;11.1;;;7.1;;
68319;SDS011;55168;51.120;17.024;2023-04-25T06:00:00;9.5;;;6.7;;
68319;SDS011;55168;51.120;17.024;2023-04-25T06:01:00;9.5;;;6.7;;
68319;SDS011;55168;51.120;17.024;2023-04-25T06:02:00;9.5;;;6.7;;
68319;SDS011;55168;51.120;17.024;2023-04-25T06:03:00;9.5;;;6.7;;
68319;SDS011;55168;51.120;17.024;2023-04-25T06:04:00;9.5;;;6.7;;
68319;SDS011;55168;51.120;17.024;2023-04-25T06:05:00;8.9;;;6.6;;
68319;SDS011;55168;51.120;17.024;2023-04-25T06:06:00;8.9;;;6.6;;